Time;durP1;ratioP1;P1;durP2;ratioP2;P2;SDS_P1;SDS_P2;PMS_P1;PMS_P2;Temp;Humidity;BMP_temperature;BMP_pressure;BME280_temperature;BME280_humidity;BME280_pressure;Samples;Min_cycle;Max_cycle;Signal;HPM_P1;HPM_P2
2023/05/10 00:00:41;;;;;;;;;1.67;1.00;;;;;14.16;69.42;100768.16;4980281;28;45274;-60
2023/05/10 00:03:06;;;;;;;;;2.00;2.00;;;;;14.23;69.61;100782.56;4980676;28;45285;-60
2023/05/10 00:05:32;;;;;;;;;3.33;3.00;;;;;14.22;69.87;100786.13;4992137;28;47253;-61
2023/05/10 00:07:57;;;;;;;;;1.00;1.00;;;;;14.18;69.75;100787.00;4978277;28;45203;-61
2023/05/10 00:10:23;;;;;;;;;2.00;2.00;;;;;14.18;68.86;100782.50;4985982;28;45563;-59
2023/05/10 00:12:48;;;;;;;;;2.67;1.00;;;;;14.15;68.19;100778.88;4977822;28;45230;-58
2023/05/10 00:15:13;;;;;;;;;2.33;2.33;;;;;14.09;66.62;100782.41;4986915;28;55782;-60
2023/05/10 00:17:39;;;;;;;;;0.00;0.00;;;;;13.94;65.92;100784.88;4982974;28;45047;-59
2023/05/10 00:20:05;;;;;;;;;2.00;1.00;;;;;13.88;66.10;100793.78;4982647;28;46541;-60
2023/05/10 00:22:31;;;;;;;;;4.00;0.00;;;;;13.78;66.97;100789.16;4989872;28;45057;-59
2023/05/10 00:24:56;;;;;;;;;2.00;1.00;;;;;13.75;66.71;100790.00;4976344;28;45631;-59
2023/05/10 00:27:22;;;;;;;;;1.00;0.00;;;;;13.65;65.60;100782.72;4976206;28;44995;-60
2023/05/10 00:29:47;;;;;;;;;0.00;0.00;;;;;13.56;65.95;100791.53;4973054;28;45177;-60
2023/05/10 00:32:13;;;;;;;;;0.00;0.00;;;;;13.48;65.09;100784.22;4986509;28;45793;-60
2023/05/10 00:34:39;;;;;;;;;1.00;1.00;;;;;13.44;65.66;100789.56;4985527;28;46002;-60
2023/05/10 00:37:04;;;;;;;;;0.00;0.00;;;;;13.43;66.33;100785.09;4984621;28;44978;-59
2023/05/10 00:39:30;;;;;;;;;0.67;0.67;;;;;13.40;65.87;100787.72;4986154;28;45377;-58
2023/05/10 00:41:55;;;;;;;;;1.67;0.67;;;;;13.36;65.61;100798.38;4986552;28;45105;-60
2023/05/10 00:44:20;;;;;;;;;0.00;0.00;;;;;13.30;65.99;100791.09;4986295;28;45938;-60
2023/05/10 00:46:47;;;;;;;;;2.00;1.00;;;;;13.27;65.69;100800.00;4982491;28;44977;-59
2023/05/10 00:49:12;;;;;;;;;2.00;1.00;;;;;13.19;66.24;100790.03;4985507;28;45194;-59
2023/05/10 00:51:38;;;;;;;;;0.00;0.00;;;;;13.30;65.74;100808.97;4985945;28;45135;-59
2023/05/10 00:54:03;;;;;;;;;0.00;0.00;;;;;13.30;66.72;100806.28;4984620;28;45557;-57
2023/05/10 00:56:29;;;;;;;;;2.00;0.33;;;;;13.38;66.23;100813.63;4986311;28;45170;-58
2023/05/10 00:58:56;;;;;;;;;1.00;0.33;;;;;13.41;65.73;100810.06;4986357;28;45090;-58
2023/05/10 01:01:21;;;;;;;;;2.33;0.00;;;;;13.39;66.06;100804.69;4986208;28;45289;-57
2023/05/10 01:03:47;;;;;;;;;2.33;1.00;;;;;13.36;66.46;100801.06;4985453;28;45505;-58
2023/05/10 01:06:12;;;;;;;;;3.00;0.00;;;;;13.34;66.26;100794.78;4985626;28;44891;-60
2023/05/10 01:08:39;;;;;;;;;0.00;0.00;;;;;13.35;66.46;100796.59;5017140;27;44910;-58
2023/05/10 01:11:04;;;;;;;;;0.00;0.00;;;;;13.40;66.08;100808.28;4979717;28;45415;-58
2023/05/10 01:13:35;;;;;;;;;1.33;0.00;;;;;13.40;65.50;100819.91;4979068;28;45504;-59
2023/05/10 01:16:04;;;;;;;;;1.00;1.00;;;;;13.42;65.33;100818.16;4978968;28;45128;-61
2023/05/10 01:18:33;;;;;;;;;1.00;1.00;;;;;13.40;65.43;100819.03;4985621;28;45496;-58
2023/05/10 01:21:07;;;;;;;;;2.00;1.00;;;;;13.41;65.55;100815.44;4979362;28;45017;-59
2023/05/10 01:24:04;;;;;;;;;1.00;1.00;;;;;13.44;65.16;100805.66;4980957;28;45524;-59
2023/05/10 01:27:14;;;;;;;;;0.67;0.33;;;;;13.45;65.00;100804.78;5039499;28;45426;-59
2023/05/10 01:30:07;;;;;;;;;0.00;0.00;;;;;13.42;64.19;100810.09;4983792;28;45194;-57
2023/05/10 01:33:01;;;;;;;;;2.67;0.00;;;;;13.35;65.50;100810.00;4975098;28;45222;-60
2023/05/10 01:35:36;;;;;;;;;0.33;0.00;;;;;13.27;64.84;100804.47;4984992;28;45686;-60
2023/05/10 01:38:37;;;;;;;;;1.00;1.00;;;;;13.33;65.51;100822.47;4983492;27;45287;-59
2023/05/10 01:41:12;;;;;;;;;1.00;1.00;;;;;13.34;65.81;100817.13;5009639;28;45352;-59
2023/05/10 01:44:00;;;;;;;;;2.33;0.00;;;;;13.40;65.35;100814.56;4974709;28;45246;-58
2023/05/10 01:46:40;;;;;;;;;0.00;0.00;;;;;13.05;64.89;100744.19;4984916;28;45250;-59
2023/05/10 01:49:11;;;;;;;;;0.33;0.00;;;;;13.32;64.59;100807.22;4968777;28;45555;-58
2023/05/10 01:51:44;;;;;;;;;0.00;0.00;;;;;13.09;64.39;100762.16;4983158;28;45222;-58
2023/05/10 01:54:13;;;;;;;;;1.67;0.67;;;;;13.43;64.48;100819.09;4982699;28;45475;-60
2023/05/10 01:56:40;;;;;;;;;1.00;0.00;;;;;13.44;64.79;100818.19;4977614;28;45823;-59
2023/05/10 01:59:11;;;;;;;;;0.00;0.00;;;;;13.49;64.53;100831.69;4986559;28;45011;-59
2023/05/10 02:01:37;;;;;;;;;2.67;0.00;;;;;13.44;64.62;100828.91;4988151;28;45193;-59
2023/05/10 02:04:03;;;;;;;;;0.00;0.00;;;;;13.43;64.13;100829.81;4987677;28;45215;-59
2023/05/10 02:06:32;;;;;;;;;0.00;0.00;;;;;13.34;63.83;100817.13;4985547;28;45385;-61
2023/05/10 02:08:57;;;;;;;;;1.00;0.00;;;;;13.38;65.08;100824.38;4985247;28;45178;-60
2023/05/10 02:11:24;;;;;;;;;0.00;0.00;;;;;13.39;65.05;100833.31;4979224;28;45123;-60
2023/05/10 02:13:53;;;;;;;;;1.33;0.00;;;;;13.35;64.63;100824.31;4988336;28;45372;-61
2023/05/10 02:16:23;;;;;;;;;1.00;0.00;;;;;13.26;64.30;100811.63;4989235;27;46202;-61
2023/05/10 02:18:51;;;;;;;;;0.00;0.00;;;;;13.32;64.41;100828.69;4987943;28;45106;-59
2023/05/10 02:21:19;;;;;;;;;0.00;0.00;;;;;13.27;65.39;100823.25;4986355;28;45201;-61
2023/05/10 02:23:45;;;;;;;;;0.00;0.00;;;;;13.37;65.31;100835.97;4987128;28;45894;-61
2023/05/10 02:26:11;;;;;;;;;0.00;0.00;;;;;13.42;64.97;100825.31;4987605;28;45732;-61
2023/05/10 02:28:39;;;;;;;;;0.00;0.00;;;;;13.40;64.00;100832.44;4987601;28;45208;-62
2023/05/10 02:31:06;;;;;;;;;0.00;0.00;;;;;13.43;63.83;100828.03;4988116;28;44948;-59
2023/05/10 02:33:33;;;;;;;;;1.00;1.00;;;;;13.37;64.43;100824.34;4984347;27;45631;-59
2023/05/10 02:35:59;;;;;;;;;1.00;1.00;;;;;13.34;63.56;100830.56;4988234;28;45205;-60
2023/05/10 02:38:26;;;;;;;;;0.00;0.00;;;;;13.33;63.65;100836.81;4987735;28;45265;-60
2023/05/10 02:40:53;;;;;;;;;1.00;0.00;;;;;13.32;63.62;100832.31;4988201;28;45997;-59
2023/05/10 02:43:22;;;;;;;;;0.00;0.00;;;;;13.35;64.02;100837.72;4989120;27;45094;-58
2023/05/10 02:45:48;;;;;;;;;0.33;0.00;;;;;13.29;63.80;100818.81;4987598;28;45021;-60
2023/05/10 02:48:14;;;;;;;;;0.00;0.00;;;;;13.32;63.55;100812.59;4987300;28;44952;-58
2023/05/10 02:50:44;;;;;;;;;0.00;0.00;;;;;13.38;63.61;100828.81;4988471;28;45275;-59
2023/05/10 02:53:15;;;;;;;;;0.00;0.00;;;;;13.47;64.22;100825.41;4989955;28;45449;-57
2023/05/10 02:55:44;;;;;;;;;0.00;0.00;;;;;13.51;63.85;100821.88;4988303;27;47493;-61
2023/05/10 02:58:10;;;;;;;;;0.00;0.00;;;;;13.44;63.44;100811.03;4983110;28;45161;-60
2023/05/10 03:00:36;;;;;;;;;0.00;0.00;;;;;13.54;63.91;100821.91;4984051;28;45254;-59
2023/05/10 03:03:01;;;;;;;;;0.00;0.00;;;;;13.57;63.54;100814.81;4988120;28;45242;-59
2023/05/10 03:05:27;;;;;;;;;0.00;0.00;;;;;13.63;63.26;100814.00;4986993;28;45789;-59
2023/05/10 03:07:54;;;;;;;;;1.00;0.00;;;;;13.65;63.21;100817.63;4987217;28;44981;-59
2023/05/10 03:10:25;;;;;;;;;0.00;0.00;;;;;13.65;63.71;100809.56;4985858;28;45131;-59
2023/05/10 03:13:10;;;;;;;;;0.00;0.00;;;;;13.70;63.23;100815.91;4986892;28;45037;-60
2023/05/10 03:15:53;;;;;;;;;0.00;0.00;;;;;13.70;63.43;100809.63;4986690;28;45994;-60
2023/05/10 03:18:23;;;;;;;;;1.00;0.00;;;;;13.66;63.30;100808.69;4987530;28;45349;-58
2023/05/10 03:20:58;;;;;;;;;0.00;0.00;;;;;13.61;63.71;100808.63;4986694;28;45235;-59
2023/05/10 03:23:33;;;;;;;;;0.00;0.00;;;;;13.62;63.28;100813.09;4985919;28;44961;-59
2023/05/10 03:26:00;;;;;;;;;0.67;0.67;;;;;13.56;63.10;100812.09;4983504;28;46843;-60
2023/05/10 03:28:27;;;;;;;;;1.00;0.00;;;;;13.45;63.75;100793.16;4981778;28;45349;-59
2023/05/10 03:30:54;;;;;;;;;0.00;0.00;;;;;13.60;64.06;100813.97;4986987;28;44928;-61
2023/05/10 03:33:19;;;;;;;;;0.00;0.00;;;;;13.54;63.97;100808.50;4986545;28;45160;-58
2023/05/10 03:35:45;;;;;;;;;1.00;0.00;;;;;13.59;64.22;100817.50;4989075;28;45091;-58
2023/05/10 03:38:11;;;;;;;;;0.00;0.00;;;;;13.56;63.80;100813.03;4978618;28;45100;-59
2023/05/10 03:40:37;;;;;;;;;0.00;0.00;;;;;13.47;64.95;100812.88;4988208;28;45281;-59
2023/05/10 03:43:02;;;;;;;;;0.00;0.00;;;;;13.52;65.13;100813.84;4987063;28;45189;-59
2023/05/10 03:45:28;;;;;;;;;0.33;0.33;;;;;13.53;65.12;100812.03;4983348;28;45853;-59
2023/05/10 03:47:53;;;;;;;;;1.00;1.00;;;;;13.54;65.79;100812.06;4978410;28;45343;-59
2023/05/10 03:50:19;;;;;;;;;1.00;1.00;;;;;13.54;66.41;100813.88;4987050;28;45139;-59
2023/05/10 03:52:45;;;;;;;;;1.00;0.00;;;;;13.47;66.03;100803.94;4987190;28;45013;-59
2023/05/10 03:55:10;;;;;;;;;2.00;0.00;;;;;13.54;66.72;100809.38;4985678;28;50654;-59
2023/05/10 03:57:36;;;;;;;;;0.00;0.00;;;;;13.55;66.74;100813.00;4986688;27;45220;-62
2023/05/10 04:00:02;;;;;;;;;0.67;0.67;;;;;13.53;66.18;100809.34;4986424;28;45294;-61
2023/05/10 04:02:27;;;;;;;;;0.00;0.00;;;;;13.50;67.48;100810.22;4987323;28;45199;-59
2023/05/10 04:04:53;;;;;;;;;1.67;1.00;;;;;13.49;67.20;100811.09;4987230;28;46057;-56
2023/05/10 04:07:18;;;;;;;;;1.00;1.00;;;;;13.49;67.41;100810.22;4984696;28;45083;-58
2023/05/10 04:09:43;;;;;;;;;1.00;1.00;;;;;13.37;67.43;100784.97;4986404;28;45120;-58
2023/05/10 04:12:09;;;;;;;;;0.00;0.00;;;;;13.44;67.92;100810.13;4983550;28;45039;-57
2023/05/10 04:14:35;;;;;;;;;0.00;0.00;;;;;13.42;67.73;100795.78;4986404;28;46433;-59
2023/05/10 04:17:00;;;;;;;;;0.67;0.33;;;;;13.35;68.64;100793.91;4973218;28;45164;-60
2023/05/10 04:19:31;;;;;;;;;2.00;1.00;;;;;13.28;68.15;100784.78;4982000;27;50895;-59
2023/05/10 04:21:57;;;;;;;;;0.00;0.00;;;;;13.39;68.89;100809.16;4970708;28;45101;-59
2023/05/10 04:24:23;;;;;;;;;1.67;1.00;;;;;13.41;68.60;100807.41;4975380;28;46094;-59
2023/05/10 04:26:48;;;;;;;;;2.00;0.00;;;;;13.42;68.69;100801.16;4980806;28;46134;-57
2023/05/10 04:29:13;;;;;;;;;0.67;0.67;;;;;13.41;68.39;100793.97;4985890;28;49352;-58
2023/05/10 04:31:38;;;;;;;;;3.00;1.00;;;;;13.34;68.69;100771.50;4986239;28;46635;-59
2023/05/10 04:34:04;;;;;;;;;0.00;0.00;;;;;13.43;68.35;100795.81;4986823;28;45605;-58
2023/05/10 04:36:29;;;;;;;;;1.00;1.00;;;;;13.36;68.96;100791.22;4984674;28;45090;-61
2023/05/10 04:38:54;;;;;;;;;0.00;0.00;;;;;13.34;68.72;100789.41;4987319;28;45497;-59
2023/05/10 04:41:20;;;;;;;;;2.33;0.67;;;;;13.40;69.62;100793.09;4986372;28;45345;-59
2023/05/10 04:43:46;;;;;;;;;0.00;0.00;;;;;13.40;69.49;100801.13;4985879;28;45114;-60
2023/05/10 04:46:11;;;;;;;;;1.67;1.00;;;;;13.41;69.91;100800.28;4981264;28;45152;-59
2023/05/10 04:48:36;;;;;;;;;0.00;0.00;;;;;13.43;70.01;100805.66;4986742;28;45172;-59
2023/05/10 04:51:03;;;;;;;;;1.00;1.00;;;;;13.41;71.24;100794.91;4983656;28;45140;-59
2023/05/10 04:53:29;;;;;;;;;0.00;0.00;;;;;12.94;71.93;100719.00;4986309;28;45898;-60
2023/05/10 04:55:54;;;;;;;;;3.33;1.00;;;;;13.35;72.59;100793.91;4985666;28;45177;-59
2023/05/10 04:58:20;;;;;;;;;1.67;1.33;;;;;13.38;71.88;100789.47;4985648;28;45110;-59
2023/05/10 05:00:45;;;;;;;;;2.00;1.00;;;;;13.42;72.09;100788.63;4984387;28;45092;-60
2023/05/10 05:03:11;;;;;;;;;1.67;1.67;;;;;13.43;71.75;100793.13;4985140;28;45233;-61
2023/05/10 05:05:36;;;;;;;;;0.00;0.00;;;;;13.40;72.45;100782.34;4983765;28;45314;-59
2023/05/10 05:08:01;;;;;;;;;2.00;0.33;;;;;13.46;72.38;100800.31;4981643;28;45393;-59
2023/05/10 05:10:27;;;;;;;;;2.00;1.33;;;;;13.47;73.42;100790.50;4979260;28;45182;-60
2023/05/10 05:12:52;;;;;;;;;1.00;1.00;;;;;13.55;73.07;100808.53;4984745;28;56245;-59
2023/05/10 05:15:17;;;;;;;;;1.00;1.00;;;;;13.50;72.75;100785.19;4984115;28;45221;-61
2023/05/10 05:17:43;;;;;;;;;2.00;2.00;;;;;13.58;72.66;100796.94;4970891;28;44944;-58
2023/05/10 05:20:09;;;;;;;;;3.00;1.00;;;;;13.57;72.42;100795.13;4985176;28;45187;-58
2023/05/10 05:22:36;;;;;;;;;1.00;1.00;;;;;13.58;72.29;100795.16;4973645;28;45384;-60
2023/05/10 05:25:03;;;;;;;;;2.00;2.00;;;;;13.60;72.67;100793.38;4980626;28;45277;-57
2023/05/10 05:27:28;;;;;;;;;2.00;1.33;;;;;13.61;72.93;100788.91;4987076;28;45151;-62
2023/05/10 05:29:54;;;;;;;;;1.00;1.00;;;;;13.65;72.67;100798.81;4979464;28;45772;-59
2023/05/10 05:32:20;;;;;;;;;3.00;3.00;;;;;13.58;73.29;100788.88;4980693;28;45018;-59
2023/05/10 05:34:45;;;;;;;;;4.00;2.00;;;;;13.66;72.86;100808.69;4987654;28;45075;-58
2023/05/10 05:37:19;;;;;;;;;4.00;4.00;;;;;13.66;72.51;100806.00;4981958;28;45900;-60
2023/05/10 05:39:45;;;;;;;;;6.00;4.00;;;;;13.61;73.14;100791.59;4988951;28;45249;-60
2023/05/10 05:42:11;;;;;;;;;3.00;3.00;;;;;13.68;72.96;100803.31;4987255;28;45176;-59
2023/05/10 05:44:37;;;;;;;;;4.00;4.00;;;;;13.63;72.59;100798.78;4987900;28;45591;-59
2023/05/10 05:47:03;;;;;;;;;2.33;2.33;;;;;13.62;73.26;100806.81;4986846;28;45322;-60
2023/05/10 05:49:28;;;;;;;;;5.67;4.00;;;;;13.69;72.52;100815.88;4975185;28;45227;-59
2023/05/10 05:51:54;;;;;;;;;8.67;5.33;;;;;13.73;73.30;100813.25;4986591;28;45960;-57
2023/05/10 05:54:19;;;;;;;;;3.00;1.67;;;;;13.76;72.69;100810.63;4984653;28;45402;-59
2023/05/10 05:56:45;;;;;;;;;2.67;2.67;;;;;13.80;73.01;100806.19;4985233;28;45172;-58
2023/05/10 05:59:11;;;;;;;;;2.00;2.00;;;;;13.82;72.35;100815.16;4982321;28;45163;-58
2023/05/10 06:01:36;;;;;;;;;1.67;1.67;;;;;13.81;71.60;100825.00;4986305;28;46519;-57
2023/05/10 06:04:02;;;;;;;;;2.00;2.00;;;;;13.78;72.91;100821.38;4985792;28;45634;-58
2023/05/10 06:06:27;;;;;;;;;3.00;3.00;;;;;13.81;72.76;100825.00;4976239;28;44948;-59
2023/05/10 06:08:53;;;;;;;;;3.33;3.00;;;;;13.83;73.20;100820.56;4984352;28;45526;-59
2023/05/10 06:11:18;;;;;;;;;4.00;2.67;;;;;13.87;73.11;100828.66;4982870;28;47753;-58
2023/05/10 06:13:44;;;;;;;;;3.67;3.00;;;;;13.92;73.74;100822.47;4988307;28;45642;-60
2023/05/10 06:16:09;;;;;;;;;6.00;4.33;;;;;14.00;74.00;100830.63;4981641;28;45134;-61
2023/05/10 06:18:35;;;;;;;;;5.00;3.00;;;;;13.97;73.98;100825.22;4983505;28;45329;-60
2023/05/10 06:21:00;;;;;;;;;4.33;4.00;;;;;13.68;74.23;100763.97;4991905;28;45718;-59
2023/05/10 06:23:26;;;;;;;;;6.00;3.00;;;;;14.04;74.97;100823.50;4978482;28;44987;-59
2023/05/10 06:25:51;;;;;;;;;4.00;3.00;;;;;14.03;74.55;100822.63;4984552;28;45099;-59
2023/05/10 06:28:17;;;;;;;;;9.00;9.00;;;;;14.00;74.60;100825.25;4988071;28;45197;-60
2023/05/10 06:30:42;;;;;;;;;4.67;2.33;;;;;14.00;74.15;100831.53;4988028;28;46104;-57
2023/05/10 06:33:08;;;;;;;;;5.67;4.00;;;;;13.99;73.55;100834.19;4983037;28;45044;-59
2023/05/10 06:35:33;;;;;;;;;6.33;4.33;;;;;13.92;74.06;100826.94;4977098;28;45103;-58
2023/05/10 06:37:58;;;;;;;;;4.33;3.33;;;;;13.97;73.95;100846.72;4988950;27;45268;-60
2023/05/10 06:40:24;;;;;;;;;5.00;3.00;;;;;13.85;73.41;100836.69;4988539;28;45588;-58
2023/05/10 06:42:49;;;;;;;;;5.00;3.00;;;;;13.93;74.20;100843.09;4981903;28;45501;-61
2023/05/10 06:45:15;;;;;;;;;5.00;5.00;;;;;13.96;73.96;100850.28;4984680;28;45087;-58
2023/05/10 06:47:41;;;;;;;;;6.00;4.00;;;;;13.86;73.46;100843.88;4987393;28;45020;-60
2023/05/10 06:50:08;;;;;;;;;3.00;3.00;;;;;13.72;73.78;100838.28;4988010;28;45593;-60
2023/05/10 06:52:34;;;;;;;;;6.33;3.33;;;;;13.80;73.90;100839.31;4984198;28;44958;-58
2023/05/10 06:55:00;;;;;;;;;7.00;6.00;;;;;13.85;74.50;100851.91;4987681;28;45413;-59
2023/05/10 06:57:25;;;;;;;;;7.00;3.00;;;;;13.85;74.47;100844.75;4987631;28;44980;-60
2023/05/10 06:59:51;;;;;;;;;3.00;3.00;;;;;13.85;74.45;100849.22;4986770;28;45458;-58
2023/05/10 07:02:16;;;;;;;;;2.33;2.33;;;;;13.85;74.60;100851.91;4986863;28;45495;-58
2023/05/10 07:04:42;;;;;;;;;6.67;3.33;;;;;13.87;74.70;100848.34;4987056;28;45346;-58
2023/05/10 07:07:08;;;;;;;;;4.67;3.67;;;;;13.90;74.26;100852.88;4986549;28;45272;-60
2023/05/10 07:09:33;;;;;;;;;5.67;4.00;;;;;13.90;74.71;100859.16;4984569;28;45231;-58
2023/05/10 07:11:58;;;;;;;;;6.00;4.00;;;;;13.90;74.93;100855.56;4982302;28;44957;-59
2023/05/10 07:14:24;;;;;;;;;7.33;6.00;;;;;13.94;75.37;100843.97;4981039;28;45541;-62
2023/05/10 07:16:49;;;;;;;;;5.00;4.00;;;;;14.05;74.80;100849.50;4987995;28;45133;-60
2023/05/10 07:19:14;;;;;;;;;5.67;5.67;;;;;14.13;75.16;100862.16;5008766;28;59360;-62
2023/05/10 07:21:42;;;;;;;;;4.67;4.33;;;;;14.18;74.54;100863.13;4999788;27;45277;-58
2023/05/10 07:24:07;;;;;;;;;8.00;7.00;;;;;14.17;73.85;100866.72;4982793;28;44900;-58
2023/05/10 07:26:33;;;;;;;;;4.00;4.00;;;;;14.13;74.25;100872.91;4986428;28;45166;-60
2023/05/10 07:28:58;;;;;;;;;6.00;4.00;;;;;14.09;74.78;100867.47;4984346;28;46537;-58
2023/05/10 07:31:24;;;;;;;;;5.67;4.00;;;;;14.06;75.06;100870.13;4976784;28;45379;-61
2023/05/10 07:33:49;;;;;;;;;7.67;6.33;;;;;14.03;76.26;100856.66;4974326;28;45410;-59
2023/05/10 07:36:15;;;;;;;;;2.67;2.67;;;;;14.04;75.44;100867.44;4974500;28;45246;-59
2023/05/10 07:38:40;;;;;;;;;5.00;5.00;;;;;13.99;76.44;100863.75;4980022;28;45528;-60
2023/05/10 07:41:06;;;;;;;;;8.00;4.67;;;;;14.00;76.87;100863.75;4980743;28;45145;-58
2023/05/10 07:43:34;;;;;;;;;6.33;3.33;;;;;14.03;76.65;100870.97;4984386;28;44962;-58
2023/05/10 07:45:59;;;;;;;;;6.00;5.33;;;;;14.06;76.07;100868.34;4979484;28;45135;-58
2023/05/10 07:48:25;;;;;;;;;7.00;5.00;;;;;14.04;76.61;100875.47;4982384;28;45889;-58
2023/05/10 07:50:51;;;;;;;;;4.00;4.00;;;;;14.01;76.30;100880.81;4986841;28;45125;-60
2023/05/10 07:53:17;;;;;;;;;2.00;2.00;;;;;13.98;76.45;100870.00;4988214;27;45310;-57
2023/05/10 07:55:42;;;;;;;;;4.33;3.00;;;;;13.91;76.14;100869.03;4983979;28;45631;-60
2023/05/10 07:58:07;;;;;;;;;7.33;3.00;;;;;13.79;76.38;100853.63;4978550;28;45594;-60
2023/05/10 08:00:33;;;;;;;;;3.00;3.00;;;;;13.87;76.73;100869.84;4987252;28;45431;-61
2023/05/10 08:02:59;;;;;;;;;5.00;5.00;;;;;13.80;77.15;100868.84;4989086;28;45107;-60
2023/05/10 08:05:24;;;;;;;;;6.00;6.00;;;;;13.84;77.40;100872.47;4985928;28;45206;-59
2023/05/10 08:07:49;;;;;;;;;6.00;4.33;;;;;13.78;77.48;100869.72;4985932;28;45073;-61
2023/05/10 08:10:15;;;;;;;;;4.67;4.67;;;;;13.81;77.17;100885.88;4976733;28;53010;-61
2023/05/10 08:12:40;;;;;;;;;5.33;5.00;;;;;13.76;77.63;100868.78;4990709;28;45514;-60
2023/05/10 08:15:06;;;;;;;;;7.00;6.00;;;;;13.69;77.65;100867.78;4981078;28;45162;-61
2023/05/10 08:17:32;;;;;;;;;9.00;7.00;;;;;13.76;77.17;100874.16;5003899;28;46349;-60
2023/05/10 08:19:57;;;;;;;;;12.00;8.33;;;;;13.81;78.36;100889.47;4993952;28;45131;-59
2023/05/10 08:22:23;;;;;;;;;8.00;6.33;;;;;13.86;77.79;100875.19;4985273;28;45150;-60
2023/05/10 08:24:52;;;;;;;;;7.33;6.00;;;;;13.99;76.74;100883.47;4984955;28;45355;-61
2023/05/10 08:27:17;;;;;;;;;9.67;6.67;;;;;13.99;76.76;100894.22;4984158;28;45227;-60
2023/05/10 08:29:42;;;;;;;;;5.00;5.00;;;;;14.03;76.20;100891.56;4995554;28;63813;-62
2023/05/10 08:32:08;;;;;;;;;10.33;8.00;;;;;14.07;77.30;100890.72;4978327;27;45271;-62
2023/05/10 08:34:33;;;;;;;;;10.50;9.50;;;;;14.18;76.09;100902.53;4976545;28;45892;-60
2023/05/10 08:36:58;;;;;;;;;9.00;9.00;;;;;14.23;76.16;100898.13;4978417;28;46067;-61
2023/05/10 08:39:24;;;;;;;;;13.00;10.00;;;;;14.24;76.45;100894.56;4985988;28;45275;-61
2023/05/10 08:41:51;;;;;;;;;13.33;10.00;;;;;14.38;76.22;100909.06;4985152;28;46904;-62
2023/05/10 08:44:18;;;;;;;;;8.67;8.67;;;;;14.51;76.40;100917.31;4985803;28;45438;-65
2023/05/10 08:46:46;;;;;;;;;6.33;6.33;;;;;14.62;75.54;100917.47;4985501;28;45774;-60
2023/05/10 08:49:20;;;;;;;;;6.00;6.00;;;;;14.65;75.21;100921.13;4979886;28;45100;-60
2023/05/10 08:51:51;;;;;;;;;14.00;7.67;;;;;14.69;74.73;100925.63;4971928;28;45120;-57
2023/05/10 08:54:17;;;;;;;;;29.00;24.50;;;;;14.70;74.87;100921.16;4984619;28;45318;-58
2023/05/10 08:56:42;;;;;;;;;6.33;6.33;;;;;14.83;75.18;100916.81;4981719;28;45882;-58
2023/05/10 08:59:08;;;;;;;;;9.67;7.00;;;;;14.99;75.41;100926.88;4978380;28;45331;-58
2023/05/10 09:01:36;;;;;;;;;17.67;15.67;;;;;15.00;73.75;100884.75;4988586;28;44919;-62
2023/05/10 09:04:02;;;;;;;;;19.00;12.67;;;;;15.45;74.43;100927.34;4984411;28;45546;-60
2023/05/10 09:06:28;;;;;;;;;8.67;8.67;;;;;15.72;74.05;100936.53;4985071;28;46171;-60
2023/05/10 09:08:54;;;;;;;;;9.00;9.00;;;;;15.90;72.79;100934.94;4986516;28;45369;-59
2023/05/10 09:11:20;;;;;;;;;8.67;6.67;;;;;15.90;71.74;100941.22;4990598;28;45148;-59
2023/05/10 09:13:48;;;;;;;;;10.00;9.33;;;;;15.98;72.01;100942.19;4993300;28;45079;-62
2023/05/10 09:16:13;;;;;;;;;17.33;14.33;;;;;16.03;71.37;100944.91;5009719;28;46075;-60
2023/05/10 09:18:38;;;;;;;;;6.67;5.67;;;;;15.95;70.08;100928.66;4979969;28;45363;-61
2023/05/10 09:21:04;;;;;;;;;7.33;7.33;;;;;15.94;70.29;100952.94;4979571;28;45504;-60
2023/05/10 09:23:32;;;;;;;;;7.00;7.00;;;;;15.87;70.07;100951.97;4988067;28;45360;-60
2023/05/10 09:26:07;;;;;;;;;11.67;7.33;;;;;15.83;69.62;100953.75;4989082;28;45984;-58
2023/05/10 09:28:50;;;;;;;;;11.00;8.33;;;;;15.87;70.08;100960.03;4988479;28;45160;-60
2023/05/10 09:31:15;;;;;;;;;18.00;8.00;;;;;15.93;69.69;100960.09;4988669;28;44992;-58
2023/05/10 09:33:45;;;;;;;;;14.33;10.00;;;;;15.98;69.58;100965.53;4988177;28;44980;-59
2023/05/10 09:36:11;;;;;;;;;12.33;8.33;;;;;15.97;69.40;100964.66;4987258;28;46648;-60
2023/05/10 09:38:51;;;;;;;;;6.67;6.67;;;;;16.00;69.73;100964.66;4988568;28;45139;-61
2023/05/10 09:41:22;;;;;;;;;13.67;9.67;;;;;16.16;69.09;100972.84;5007075;28;45505;-61
2023/05/10 09:43:47;;;;;;;;;20.67;15.33;;;;;16.34;70.00;100972.97;4988461;28;45265;-61
2023/05/10 09:46:13;;;;;;;;;19.33;16.33;;;;;16.48;68.74;100981.16;4978363;28;45231;-61
2023/05/10 09:48:44;;;;;;;;;10.00;9.33;;;;;16.49;68.17;100965.88;4979604;28;45196;-61
2023/05/10 09:51:10;;;;;;;;;13.33;10.67;;;;;16.56;67.95;100968.63;4982329;28;44909;-60
2023/05/10 09:53:35;;;;;;;;;9.33;8.67;;;;;16.57;66.74;100966.81;4981813;28;45308;-59
2023/05/10 09:56:00;;;;;;;;;10.33;5.67;;;;;16.55;66.31;100979.41;4985075;28;45994;-60
2023/05/10 09:58:26;;;;;;;;;11.00;11.00;;;;;16.47;66.60;100983.84;4982433;28;45115;-62
2023/05/10 10:00:53;;;;;;;;;11.67;10.00;;;;;16.39;66.75;100992.78;4984713;28;45082;-61
2023/05/10 10:03:20;;;;;;;;;11.67;6.00;;;;;16.24;65.56;100986.41;4988813;28;45281;-61
2023/05/10 10:05:47;;;;;;;;;6.00;6.00;;;;;16.05;66.01;100988.94;4987432;28;45739;-60
2023/05/10 10:08:15;;;;;;;;;10.00;7.33;;;;;15.93;66.27;100980.78;4985036;28;45424;-60
2023/05/10 10:10:41;;;;;;;;;10.67;4.67;;;;;15.89;66.61;100987.94;4989323;28;45148;-61
2023/05/10 10:13:07;;;;;;;;;10.67;9.33;;;;;15.87;67.42;100989.69;5003503;27;45096;-60
2023/05/10 10:15:34;;;;;;;;;15.67;10.00;;;;;15.88;66.61;100983.41;4987780;28;45549;-61
2023/05/10 10:18:00;;;;;;;;;8.67;7.00;;;;;15.75;66.46;100974.28;4987156;28;45138;-61
2023/05/10 10:20:26;;;;;;;;;22.33;16.00;;;;;15.82;67.13;100996.81;4986417;28;45417;-61
2023/05/10 10:22:52;;;;;;;;;13.33;9.33;;;;;15.78;66.67;100986.94;4981791;28;45396;-60
2023/05/10 10:25:20;;;;;;;;;8.67;7.67;;;;;15.66;67.03;100988.59;4980183;28;45248;-62
2023/05/10 10:27:51;;;;;;;;;12.00;8.00;;;;;15.59;66.56;100991.19;4991139;28;45254;-60
2023/05/10 10:30:37;;;;;;;;;16.33;9.33;;;;;15.53;66.25;100986.66;4978388;28;45070;-61
2023/05/10 10:33:03;;;;;;;;;7.33;7.33;;;;;15.56;67.23;100980.38;4985783;28;48102;-62
2023/05/10 10:35:30;;;;;;;;;7.67;5.33;;;;;15.59;66.95;100983.13;4986970;28;45370;-60
2023/05/10 10:37:56;;;;;;;;;11.00;9.00;;;;;15.64;66.08;100984.97;4975598;28;45420;-59
2023/05/10 10:40:33;;;;;;;;;13.67;9.00;;;;;15.68;65.76;100976.94;4982014;28;45474;-60
2023/05/10 10:43:25;;;;;;;;;10.67;9.00;;;;;15.74;64.90;100982.34;5004783;27;45273;-60
2023/05/10 10:46:17;;;;;;;;;9.33;9.33;;;;;15.56;65.18;100931.91;4985606;28;47884;-60
2023/05/10 10:49:08;;;;;;;;;11.67;9.67;;;;;15.97;63.84;100975.41;4986318;27;45331;-61
2023/05/10 10:51:40;;;;;;;;;12.00;9.67;;;;;16.06;63.68;100977.28;4982827;28;45440;-60
2023/05/10 10:54:12;;;;;;;;;14.67;9.33;;;;;16.17;63.50;100982.75;4987319;28;45287;-61
2023/05/10 10:56:38;;;;;;;;;12.67;9.00;;;;;16.31;62.53;100972.94;4987284;28;46241;-60
2023/05/10 10:59:03;;;;;;;;;15.67;8.67;;;;;16.38;62.13;100980.22;4987424;28;45028;-62
2023/05/10 11:01:35;;;;;;;;;11.33;9.00;;;;;16.55;61.89;100993.78;4975959;28;45094;-59
2023/05/10 11:04:00;;;;;;;;;9.00;9.00;;;;;16.62;61.05;100988.44;4978722;28;45273;-59
2023/05/10 11:06:31;;;;;;;;;13.33;7.67;;;;;16.66;61.28;100996.53;4981895;28;46042;-60
2023/05/10 11:08:57;;;;;;;;;10.33;7.67;;;;;16.50;60.63;100979.38;4972906;28;45083;-61
2023/05/10 11:11:22;;;;;;;;;10.00;9.00;;;;;16.62;61.56;100980.34;4987456;28;45218;-60
2023/05/10 11:13:48;;;;;;;;;9.00;7.33;;;;;16.68;60.83;100985.75;4982717;28;45411;-58
2023/05/10 11:16:16;;;;;;;;;9.33;8.00;;;;;16.71;60.09;100991.16;4986103;28;45931;-61
2023/05/10 11:18:57;;;;;;;;;8.00;5.67;;;;;16.69;59.46;100990.25;4991984;28;45291;-59
2023/05/10 11:21:22;;;;;;;;;9.00;8.00;;;;;16.73;59.47;100987.59;4987189;27;45279;-61
2023/05/10 11:23:56;;;;;;;;;16.00;11.00;;;;;16.79;59.71;100975.00;4987332;28;45412;-60
2023/05/10 11:26:25;;;;;;;;;15.67;11.00;;;;;16.99;59.84;100991.31;4976840;28;46041;-63